Time;durP1;ratioP1;P1;durP2;ratioP2;P2;SDS_P1;SDS_P2;PMS_P1;PMS_P2;Temp;Humidity;BMP_temperature;BMP_pressure;BME280_temperature;BME280_humidity;BME280_pressure;Samples;Min_cycle;Max_cycle;Signal;HPM_P1;HPM_P2
2022/12/19 00:01:19;;;;;;;;;36.75;32.25;;;;;5.29;100.00;101669.63;5034876;28;45331;-76
2022/12/19 00:03:51;;;;;;;;;37.25;35.00;;;;;5.27;100.00;101675.13;5033554;28;46478;-75
2022/12/19 00:06:17;;;;;;;;;36.00;32.00;;;;;5.24;100.00;101672.63;5035970;28;45314;-76
2022/12/19 00:08:45;;;;;;;;;37.25;32.75;;;;;5.28;100.00;101670.59;5040742;28;45326;-75
2022/12/19 00:11:12;;;;;;;;;39.25;33.50;;;;;5.29;100.00;101667.81;5037369;28;45552;-75
2022/12/19 00:13:38;;;;;;;;;33.25;31.00;;;;;5.35;100.00;101664.75;5039603;28;47263;-75
2022/12/19 00:16:09;;;;;;;;;40.25;36.00;;;;;5.42;100.00;101649.94;5040502;28;45368;-75
2022/12/19 00:18:35;;;;;;;;;35.00;29.50;;;;;5.43;100.00;101651.69;5031229;28;45416;-75
2022/12/19 00:21:03;;;;;;;;;36.00;29.00;;;;;5.45;100.00;101646.19;5034201;28;45229;-76
2022/12/19 00:23:31;;;;;;;;;32.00;29.00;;;;;5.44;100.00;101644.47;5038994;28;45637;-76
2022/12/19 00:26:15;;;;;;;;;41.25;32.75;;;;;5.45;100.00;101644.38;5034591;28;46035;-76
2022/12/19 00:28:42;;;;;;;;;37.50;31.50;;;;;5.49;100.00;101635.13;5025362;28;45332;-76
2022/12/19 00:31:08;;;;;;;;;30.00;27.50;;;;;5.49;100.00;101645.91;5036548;28;45504;-75
2022/12/19 00:33:34;;;;;;;;;36.75;30.25;;;;;5.48;100.00;101644.16;5027020;28;48358;-76
2022/12/19 00:36:02;;;;;;;;;33.50;28.75;;;;;5.57;100.00;101644.56;5049262;28;45264;-76
2022/12/19 00:38:28;;;;;;;;;32.25;30.75;;;;;5.52;100.00;101634.06;5035531;28;45248;-75
2022/12/19 00:40:54;;;;;;;;;38.00;31.75;;;;;5.55;100.00;101633.03;5042736;28;45388;-74
2022/12/19 00:43:19;;;;;;;;;28.50;24.00;;;;;5.58;100.00;101624.75;5034181;28;45595;-75
2022/12/19 00:45:44;;;;;;;;;32.50;29.00;;;;;5.57;100.00;101621.16;5033027;28;45509;-75
2022/12/19 00:48:10;;;;;;;;;32.00;31.00;;;;;5.59;100.00;101613.88;5030397;28;45340;-75
2022/12/19 00:50:35;;;;;;;;;32.75;30.50;;;;;5.58;100.00;101617.53;5033187;28;45363;-76
2022/12/19 00:53:01;;;;;;;;;34.25;30.00;;;;;5.63;100.00;101609.13;5038413;28;47163;-76
2022/12/19 00:55:26;;;;;;;;;30.25;26.50;;;;;5.59;100.00;101594.13;5026396;28;45342;-75
2022/12/19 00:57:51;;;;;;;;;32.75;30.75;;;;;5.67;100.00;101608.00;5040557;28;45727;-76
2022/12/19 01:00:17;;;;;;;;;36.25;26.25;;;;;5.68;100.00;101609.72;5030945;28;45648;-75
2022/12/19 01:02:43;;;;;;;;;36.25;29.00;;;;;5.69;100.00;101612.34;5036899;28;45699;-76
2022/12/19 01:05:09;;;;;;;;;31.50;27.50;;;;;5.68;100.00;101612.44;5040950;28;45338;-76
2022/12/19 01:07:35;;;;;;;;;26.50;25.75;;;;;5.67;100.00;101602.59;5038697;28;45190;-75
2022/12/19 01:10:00;;;;;;;;;34.00;30.00;;;;;5.71;100.00;101604.13;5034809;28;45156;-77
2022/12/19 01:15:10;;;;;;;;;30.50;28.00;;;;;5.80;100.00;101601.72;5036921;28;45224;-76
2022/12/19 01:17:36;;;;;;;;;22.25;21.00;;;;;5.77;100.00;101599.22;5038444;28;45418;-76
2022/12/19 01:20:01;;;;;;;;;35.00;27.00;;;;;5.78;100.00;101597.38;5036458;28;45676;-75
2022/12/19 01:22:26;;;;;;;;;34.00;25.75;;;;;5.86;100.00;101612.13;5039399;28;45942;-75
2022/12/19 01:24:52;;;;;;;;;25.75;23.50;;;;;5.85;100.00;101606.81;5032933;28;45280;-76
2022/12/19 01:27:17;;;;;;;;;27.75;24.25;;;;;5.90;100.00;101606.59;5042424;28;45398;-76
2022/12/19 01:29:42;;;;;;;;;23.00;19.50;;;;;5.93;100.00;101607.25;5034797;28;45158;-75
2022/12/19 01:32:08;;;;;;;;;35.50;29.00;;;;;5.90;100.00;101611.97;5042735;28;46437;-76
2022/12/19 01:34:33;;;;;;;;;28.00;24.00;;;;;5.98;100.00;101621.31;5030970;28;45413;-75
2022/12/19 01:36:58;;;;;;;;;24.50;24.50;;;;;5.96;100.00;101604.34;5042833;28;45831;-75
2022/12/19 01:39:24;;;;;;;;;23.75;21.50;;;;;6.03;100.00;101613.78;5031270;28;45411;-76
2022/12/19 01:41:49;;;;;;;;;26.00;21.75;;;;;5.99;100.00;101596.06;5034202;28;45811;-76
2022/12/19 01:44:14;;;;;;;;;28.75;24.50;;;;;6.05;100.00;101611.88;5039266;28;45378;-76
2022/12/19 01:46:45;;;;;;;;;27.25;24.25;;;;;6.10;100.00;101598.94;5036112;28;45547;-76
2022/12/19 01:49:31;;;;;;;;;24.25;23.25;;;;;6.10;100.00;101593.53;5032989;28;45158;-77
2022/12/19 01:52:00;;;;;;;;;25.25;23.00;;;;;6.12;100.00;101598.84;5037500;28;45214;-75
2022/12/19 01:54:33;;;;;;;;;31.25;24.75;;;;;6.15;100.00;101601.34;5033591;28;45366;-74
2022/12/19 01:57:01;;;;;;;;;23.00;21.50;;;;;6.16;100.00;101597.66;5036951;28;45453;-75
2022/12/19 01:59:32;;;;;;;;;24.25;22.75;;;;;6.19;100.00;101598.34;5034535;28;45272;-74
2022/12/19 02:02:10;;;;;;;;;30.25;23.50;;;;;6.20;100.00;101605.50;5039383;28;45465;-74
2022/12/19 02:04:35;;;;;;;;;27.25;24.50;;;;;6.22;100.00;101608.94;5036018;28;45488;-74
2022/12/19 02:07:04;;;;;;;;;27.75;25.00;;;;;6.26;100.00;101604.22;5040973;28;45295;-75
2022/12/19 02:09:30;;;;;;;;;32.50;26.50;;;;;6.26;100.00;101615.00;5038505;28;45414;-75
2022/12/19 02:11:58;;;;;;;;;22.00;21.25;;;;;6.22;100.00;101611.63;5041593;28;46140;-75
2022/12/19 02:14:24;;;;;;;;;25.67;23.33;;;;;6.23;100.00;101602.56;5040164;28;45321;-74
2022/12/19 02:17:10;;;;;;;;;27.75;22.75;;;;;6.29;100.00;101613.91;5040886;28;45377;-75
2022/12/19 02:19:48;;;;;;;;;24.25;23.75;;;;;6.31;100.00;101612.88;5044112;28;45418;-75
2022/12/19 02:22:53;;;;;;;;;14.25;10.00;;;;;6.32;100.00;101617.31;5042020;28;46302;-75
2022/12/19 02:25:49;;;;;;;;;24.33;20.67;;;;;6.36;100.00;101599.06;5030785;28;45634;-75
2022/12/19 02:28:50;;;;;;;;;22.75;16.75;;;;;6.39;100.00;101604.28;5035649;28;45562;-74
2022/12/19 02:31:29;;;;;;;;;28.50;20.50;;;;;6.41;100.00;101603.22;5043128;28;45268;-74
2022/12/19 02:34:10;;;;;;;;;28.25;22.00;;;;;6.36;100.00;101602.63;5037113;28;45278;-75
2022/12/19 02:36:45;;;;;;;;;24.00;20.00;;;;;6.36;100.00;101599.06;5043971;28;45421;-74
2022/12/19 02:39:27;;;;;;;;;21.00;18.25;;;;;6.36;100.00;101604.47;5031005;28;45469;-75
2022/12/19 02:41:57;;;;;;;;;26.00;23.75;;;;;6.41;100.00;101605.03;5038773;28;45272;-75
2022/12/19 02:44:35;;;;;;;;;29.50;25.75;;;;;6.40;100.00;101611.41;5036057;28;46300;-75
2022/12/19 02:47:03;;;;;;;;;26.75;22.50;;;;;6.38;100.00;101603.41;5039215;28;45324;-75
2022/12/19 02:49:32;;;;;;;;;26.50;23.25;;;;;6.39;100.00;101604.28;5031303;28;45403;-74
2022/12/19 02:52:08;;;;;;;;;27.50;21.75;;;;;6.45;100.00;101614.66;5052428;28;45322;-75
2022/12/19 02:54:33;;;;;;;;;29.75;22.75;;;;;6.34;100.00;101595.63;5039020;28;45501;-75
2022/12/19 02:57:23;;;;;;;;;22.75;19.00;;;;;6.43;100.00;101603.13;5040267;28;45319;-75
2022/12/19 03:00:02;;;;;;;;;26.75;24.00;;;;;6.39;100.00;101588.06;5032763;28;45232;-75
2022/12/19 03:02:41;;;;;;;;;22.00;21.00;;;;;6.48;100.00;101603.66;5037269;28;45395;-75
2022/12/19 03:05:25;;;;;;;;;25.25;22.25;;;;;6.45;100.00;101598.47;5040842;28;47241;-75
2022/12/19 03:07:54;;;;;;;;;24.00;20.25;;;;;6.42;100.00;101596.84;5039007;28;45347;-75
2022/12/19 03:10:31;;;;;;;;;25.25;22.00;;;;;6.48;100.00;101600.97;5041728;28;45368;-75
2022/12/19 03:13:01;;;;;;;;;20.50;20.50;;;;;6.50;100.00;101596.34;5039871;28;45836;-76
2022/12/19 03:15:27;;;;;;;;;20.33;16.33;;;;;6.48;100.00;101587.47;5033365;28;45420;-75
2022/12/19 03:17:59;;;;;;;;;19.25;16.00;;;;;6.50;100.00;101596.34;5038263;28;45331;-75
2022/12/19 03:20:35;;;;;;;;;23.50;22.00;;;;;6.46;100.00;101589.41;5039170;28;45368;-75
2022/12/19 03:23:00;;;;;;;;;23.00;21.00;;;;;6.47;100.00;101583.03;5038775;28;45259;-75
2022/12/19 03:25:29;;;;;;;;;26.75;22.25;;;;;6.51;100.00;101595.34;5035041;28;46613;-75
2022/12/19 03:28:04;;;;;;;;;23.00;21.00;;;;;6.49;100.00;101600.88;5035950;28;45426;-75
2022/12/19 03:30:33;;;;;;;;;18.25;16.00;;;;;6.48;100.00;101598.28;5024015;28;45344;-75
2022/12/19 03:33:00;;;;;;;;;10.75;8.00;;;;;6.55;100.00;101610.41;5028231;28;45507;-74
2022/12/19 03:35:30;;;;;;;;;21.67;18.00;;;;;6.57;100.00;101612.03;5031333;28;46133;-75
2022/12/19 03:37:59;;;;;;;;;22.33;18.00;;;;;6.57;100.00;101601.25;5035254;28;45373;-75
2022/12/19 03:40:27;;;;;;;;;23.50;19.00;;;;;6.54;100.00;101593.31;5039138;28;45283;-75
2022/12/19 03:43:08;;;;;;;;;17.33;16.33;;;;;6.54;100.00;101577.13;5037334;28;45334;-75
2022/12/19 03:45:39;;;;;;;;;22.75;22.75;;;;;6.58;100.00;101578.63;5031122;28;46498;-74
2022/12/19 03:48:12;;;;;;;;;20.33;17.67;;;;;6.58;100.00;101577.78;5037940;28;45482;-75
2022/12/19 03:50:51;;;;;;;;;27.00;21.33;;;;;6.62;100.00;101584.72;5030309;28;45250;-74
2022/12/19 03:53:28;;;;;;;;;21.67;16.33;;;;;6.63;100.00;101586.44;5036688;28;45515;-75
2022/12/19 03:56:02;;;;;;;;;17.00;15.67;;;;;6.67;100.00;101584.41;5035984;28;48090;-75
2022/12/19 03:58:37;;;;;;;;;21.75;19.25;;;;;6.59;100.00;101574.09;5038836;28;45457;-75
2022/12/19 04:01:04;;;;;;;;;17.67;16.33;;;;;6.59;100.00;101576.81;5041397;28;46376;-75
2022/12/19 04:03:31;;;;;;;;;17.33;14.67;;;;;6.59;100.00;101584.91;5038592;28;45397;-75
2022/12/19 04:06:00;;;;;;;;;17.67;17.33;;;;;6.63;100.00;101594.56;5037173;28;45402;-75
2022/12/19 04:08:28;;;;;;;;;14.33;14.00;;;;;6.71;100.00;101591.34;5034611;28;46510;-75
2022/12/19 04:10:59;;;;;;;;;18.00;16.00;;;;;6.65;100.00;101579.09;5034346;28;45437;-75
2022/12/19 04:13:35;;;;;;;;;18.67;18.67;;;;;6.78;100.00;101609.72;5035007;28;45457;-75
2022/12/19 04:16:09;;;;;;;;;17.33;14.33;;;;;6.76;100.00;101618.91;5035905;28;45452;-75
2022/12/19 04:18:37;;;;;;;;;32.67;19.67;;;;;6.72;100.00;101598.47;5033721;28;45493;-75
2022/12/19 04:21:12;;;;;;;;;20.67;18.00;;;;;6.72;100.00;101599.31;5041935;28;45482;-77
2022/12/19 04:23:45;;;;;;;;;18.50;16.75;;;;;6.75;100.00;101591.03;5033574;28;45435;-75
2022/12/19 04:26:14;;;;;;;;;16.00;16.00;;;;;6.74;100.00;101591.13;5039563;28;45567;-75
2022/12/19 04:28:53;;;;;;;;;17.00;15.00;;;;;6.76;100.00;101591.88;5032062;28;45829;-75
2022/12/19 04:31:20;;;;;;;;;16.67;15.67;;;;;6.77;100.00;101588.22;5025105;28;45461;-75
2022/12/19 04:33:45;;;;;;;;;23.75;22.50;;;;;6.77;100.00;101591.78;5040581;28;45394;-75
2022/12/19 04:36:11;;;;;;;;;19.67;14.67;;;;;6.77;100.00;101583.69;5025010;28;46444;-75
2022/12/19 04:38:36;;;;;;;;;25.00;21.25;;;;;6.79;100.00;101589.84;5028996;28;45584;-75
2022/12/19 04:41:02;;;;;;;;;24.33;17.00;;;;;6.78;100.00;101590.81;5033465;28;45464;-75
2022/12/19 04:43:27;;;;;;;;;15.67;15.67;;;;;6.80;100.00;101588.88;5033947;28;45458;-75
2022/12/19 04:45:53;;;;;;;;;20.50;17.50;;;;;6.78;100.00;101585.44;5032995;28;46444;-75
2022/12/19 04:48:18;;;;;;;;;24.67;17.67;;;;;6.77;100.00;101580.13;5035377;28;45267;-75
2022/12/19 04:50:43;;;;;;;;;21.67;18.33;;;;;6.79;100.00;101581.75;5033003;28;45496;-76
2022/12/19 04:53:09;;;;;;;;;22.33;17.67;;;;;6.86;100.00;101588.47;5036874;28;45299;-76
2022/12/19 04:55:34;;;;;;;;;21.33;16.67;;;;;6.76;100.00;101565.75;5033155;28;45686;-75
2022/12/19 04:57:59;;;;;;;;;22.50;18.50;;;;;6.80;100.00;101582.59;5036834;28;45181;-75
2022/12/19 05:00:25;;;;;;;;;20.00;16.67;;;;;6.79;100.00;101581.75;5033007;28;45430;-76
2022/12/19 05:02:50;;;;;;;;;23.75;19.00;;;;;6.83;100.00;101582.41;5042113;28;45286;-75
2022/12/19 05:05:17;;;;;;;;;16.67;16.67;;;;;6.90;100.00;101592.69;5038066;28;45350;-74
2022/12/19 05:07:43;;;;;;;;;22.67;18.67;;;;;6.90;100.00;101586.41;5040704;28;45395;-75
2022/12/19 05:10:09;;;;;;;;;20.67;16.33;;;;;6.90;100.00;101581.88;5034346;28;45516;-74
2022/12/19 05:12:34;;;;;;;;;17.00;17.00;;;;;6.92;100.00;101579.94;5042378;28;45507;-75
2022/12/19 05:14:59;;;;;;;;;16.67;15.67;;;;;6.92;100.00;101569.16;5039464;28;46498;-76
2022/12/19 05:17:25;;;;;;;;;15.33;13.00;;;;;6.92;100.00;101582.66;5041960;28;45322;-75
2022/12/19 05:19:50;;;;;;;;;14.00;12.33;;;;;6.97;100.00;101580.50;5045003;28;45488;-76
2022/12/19 05:22:15;;;;;;;;;17.00;15.00;;;;;6.99;100.00;101575.00;5043152;28;45664;-75
2022/12/19 05:24:41;;;;;;;;;12.67;12.67;;;;;7.00;100.00;101574.88;5038417;28;46636;-75
2022/12/19 05:27:06;;;;;;;;;20.33;15.33;;;;;6.97;100.00;101575.09;5037695;28;45906;-75
2022/12/19 05:29:32;;;;;;;;;18.33;17.67;;;;;7.04;100.00;101579.09;5037344;28;45475;-75
2022/12/19 05:31:57;;;;;;;;;23.33;16.67;;;;;7.06;100.00;101579.00;5044229;28;46471;-75
2022/12/19 05:34:23;;;;;;;;;15.33;15.33;;;;;7.09;100.00;101578.75;5037186;28;45411;-75
2022/12/19 05:36:49;;;;;;;;;16.00;16.00;;;;;7.01;100.00;101557.69;5044908;28;45322;-76
2022/12/19 05:39:14;;;;;;;;;16.00;14.00;;;;;7.09;100.00;101586.00;5040594;28;45399;-76
2022/12/19 05:41:39;;;;;;;;;16.33;12.00;;;;;7.10;100.00;101595.84;5043919;28;45331;-75
2022/12/19 05:44:05;;;;;;;;;18.00;16.67;;;;;7.01;100.00;101603.59;5035125;28;45559;-75
2022/12/19 05:46:30;;;;;;;;;19.33;19.00;;;;;7.02;100.00;101597.25;5036318;28;45262;-74
2022/12/19 05:48:55;;;;;;;;;19.00;14.00;;;;;7.02;100.00;101594.53;5038990;28;45366;-73
2022/12/19 05:51:21;;;;;;;;;18.33;16.00;;;;;7.04;100.00;101579.09;5031495;28;45445;-74
2022/12/19 05:53:46;;;;;;;;;29.00;27.25;;;;;7.09;100.00;101586.00;5051540;28;48004;-74
2022/12/19 05:56:18;;;;;;;;;15.67;13.33;;;;;7.15;100.00;101593.72;5048611;28;45234;-73
2022/12/19 05:58:44;;;;;;;;;17.33;17.33;;;;;7.11;100.00;101581.38;5042061;28;45579;-73
2022/12/19 06:01:09;;;;;;;;;19.33;17.67;;;;;7.15;100.00;101593.72;5046028;28;45422;-73
2022/12/19 06:03:35;;;;;;;;;11.00;11.00;;;;;7.14;100.00;101576.63;5032152;28;46634;-72
2022/12/19 06:06:06;;;;;;;;;20.33;16.67;;;;;7.15;100.00;101593.72;5038248;28;45321;-72
2022/12/19 06:08:32;;;;;;;;;19.33;16.33;;;;;7.19;100.00;101595.22;5037212;28;45414;-73
2022/12/19 06:10:59;;;;;;;;;18.33;13.67;;;;;7.19;100.00;101597.91;5037308;28;45493;-72
2022/12/19 06:13:25;;;;;;;;;18.67;15.67;;;;;7.14;100.00;101586.56;5029650;28;45338;-74
2022/12/19 06:15:57;;;;;;;;;20.33;13.33;;;;;7.25;100.00;101594.78;5026517;28;45351;-72
2022/12/19 06:18:22;;;;;;;;;13.00;13.00;;;;;7.18;100.00;101579.97;5041492;28;45665;-72
2022/12/19 06:20:59;;;;;;;;;20.33;16.67;;;;;7.20;100.00;101580.75;5030750;28;45401;-73
2022/12/19 06:23:25;;;;;;;;;17.00;13.33;;;;;7.20;100.00;101581.59;5035533;28;47111;-74
2022/12/19 06:25:50;;;;;;;;;24.33;18.00;;;;;7.23;100.00;101584.06;5031977;28;45375;-72
2022/12/19 06:28:16;;;;;;;;;19.33;15.00;;;;;7.29;100.00;101586.38;5040627;28;45304;-72
2022/12/19 06:30:41;;;;;;;;;14.33;14.33;;;;;7.30;100.00;101577.31;5035356;28;45221;-74
2022/12/19 06:33:06;;;;;;;;;16.67;14.33;;;;;7.25;100.00;101559.66;5038448;28;45334;-72
2022/12/19 06:35:32;;;;;;;;;13.00;13.00;;;;;7.41;100.00;101584.66;5033910;28;45368;-73
2022/12/19 06:37:57;;;;;;;;;15.00;13.00;;;;;7.37;100.00;101572.34;5039534;28;45222;-74
2022/12/19 06:43:06;;;;;;;;;18.00;14.00;;;;;7.45;100.00;101569.09;5035774;28;45357;-72
2022/12/19 06:45:32;;;;;;;;;13.00;13.00;;;;;7.45;100.00;101574.50;5036416;28;45527;-72
2022/12/19 06:47:57;;;;;;;;;15.67;13.33;;;;;7.46;100.00;101570.78;5026585;28;45470;-74
2022/12/19 06:50:23;;;;;;;;;18.00;17.00;;;;;7.49;100.00;101574.16;5038386;28;45450;-74
2022/12/19 06:52:48;;;;;;;;;15.67;14.00;;;;;7.53;100.00;101581.06;5039489;28;45344;-72
2022/12/19 06:55:14;;;;;;;;;11.67;7.67;;;;;7.46;100.00;101563.53;5040930;28;45302;-74
2022/12/19 06:57:44;;;;;;;;;15.67;15.67;;;;;7.54;100.00;101574.69;5038606;28;45256;-73
2022/12/19 07:00:12;;;;;;;;;18.33;17.00;;;;;7.56;100.00;101561.06;5038937;28;45437;-75
2022/12/19 07:02:41;;;;;;;;;13.67;13.00;;;;;7.61;100.00;101580.53;5037664;28;46948;-72
2022/12/19 07:05:07;;;;;;;;;13.67;12.00;;;;;7.59;100.00;101575.25;5030616;28;45357;-73
2022/12/19 07:07:32;;;;;;;;;14.00;14.00;;;;;7.64;100.00;101581.19;5039765;28;45358;-74
2022/12/19 07:09:58;;;;;;;;;16.67;14.33;;;;;7.64;100.00;101586.59;5031961;28;45757;-73
2022/12/19 07:12:23;;;;;;;;;15.67;14.00;;;;;7.65;100.00;101579.34;5039136;28;47167;-73
2022/12/19 07:14:49;;;;;;;;;16.33;15.00;;;;;7.65;100.00;101576.63;5040990;28;45393;-74
2022/12/19 07:17:15;;;;;;;;;17.00;15.33;;;;;7.62;100.00;101583.13;5039730;28;45404;-72
2022/12/19 07:19:40;;;;;;;;;15.00;13.33;;;;;7.66;100.00;101584.66;5038899;28;45400;-73
2022/12/19 07:22:06;;;;;;;;;17.33;13.00;;;;;7.63;100.00;101582.16;5053037;28;46281;-73
2022/12/19 07:24:34;;;;;;;;;15.67;15.67;;;;;7.71;100.00;101585.19;5037414;28;45240;-72
2022/12/19 07:26:59;;;;;;;;;21.00;17.67;;;;;7.68;100.00;101595.34;5041391;28;45321;-71
2022/12/19 07:29:25;;;;;;;;;17.33;16.33;;;;;7.63;100.00;101590.28;5035549;28;45438;-74
2022/12/19 07:31:51;;;;;;;;;17.00;15.00;;;;;7.71;100.00;101587.88;5032705;28;47687;-73
2022/12/19 07:34:16;;;;;;;;;17.00;14.00;;;;;7.68;100.00;101590.78;5037407;28;45438;-74
2022/12/19 07:36:41;;;;;;;;;18.67;17.67;;;;;7.66;100.00;101584.66;5039453;28;45287;-74
2022/12/19 07:39:07;;;;;;;;;14.00;12.67;;;;;7.66;100.00;101584.66;5029238;28;45311;-73
2022/12/19 07:41:35;;;;;;;;;14.67;12.00;;;;;7.61;100.00;101585.94;5038982;28;46218;-73
2022/12/19 07:44:01;;;;;;;;;16.67;16.67;;;;;7.56;100.00;101582.69;5033349;28;45315;-74
2022/12/19 07:46:29;;;;;;;;;17.67;14.00;;;;;7.63;100.00;101595.69;5035804;28;45406;-73
2022/12/19 07:48:58;;;;;;;;;16.67;12.33;;;;;7.56;100.00;101593.50;5038960;28;45342;-73
2022/12/19 07:51:24;;;;;;;;;12.67;10.33;;;;;7.60;100.00;101589.59;5036791;28;46377;-74
2022/12/19 07:53:49;;;;;;;;;20.00;14.00;;;;;7.65;100.00;101596.44;5031139;28;45503;-72
2022/12/19 07:56:16;;;;;;;;;20.33;17.00;;;;;7.60;100.00;101586.91;5029346;28;45450;-72
2022/12/19 07:58:41;;;;;;;;;14.33;14.33;;;;;7.63;100.00;101597.50;5032749;28;45285;-71
2022/12/19 08:01:07;;;;;;;;;6.33;6.33;;;;;7.69;100.00;101611.47;5035141;28;45800;-72
2022/12/19 08:03:32;;;;;;;;;17.00;12.67;;;;;7.72;100.00;101611.25;5038935;28;45709;-72
2022/12/19 08:06:00;;;;;;;;;19.33;14.00;;;;;7.74;100.00;101619.28;5034324;28;45363;-74
2022/12/19 08:08:26;;;;;;;;;14.00;14.00;;;;;7.73;100.00;101615.69;5034987;28;45571;-76
2022/12/19 08:10:51;;;;;;;;;19.00;15.67;;;;;7.75;100.00;101619.13;5028735;28;46336;-74
2022/12/19 08:13:16;;;;;;;;;14.00;13.00;;;;;7.79;100.00;101626.06;5035756;28;45389;-73
2022/12/19 08:15:42;;;;;;;;;17.00;15.33;;;;;7.78;100.00;101610.81;5032652;28;45408;-74
2022/12/19 08:18:07;;;;;;;;;23.00;16.33;;;;;7.82;100.00;101623.13;5054005;28;45453;-73
2022/12/19 08:20:33;;;;;;;;;20.00;19.67;;;;;7.81;100.00;101605.19;5041885;28;45647;-72
2022/12/19 08:22:58;;;;;;;;;15.67;13.33;;;;;7.87;100.00;101608.44;5038194;28;45510;-72
2022/12/19 08:25:23;;;;;;;;;13.67;13.67;;;;;7.87;100.00;101603.88;5022018;28;45861;-74
2022/12/19 08:27:49;;;;;;;;;18.00;14.00;;;;;7.89;100.00;101606.50;5039369;28;45488;-73
2022/12/19 08:30:14;;;;;;;;;15.67;15.67;;;;;7.95;100.00;101616.88;5031236;28;45583;-74
2022/12/19 08:32:40;;;;;;;;;13.00;13.00;;;;;7.97;100.00;101620.31;5037958;28;45256;-75
2022/12/19 08:35:06;;;;;;;;;16.33;14.33;;;;;7.97;100.00;101621.16;5039647;28;45300;-73
2022/12/19 08:37:32;;;;;;;;;13.67;12.67;;;;;8.02;100.00;101620.84;5045648;28;45231;-74
2022/12/19 08:39:57;;;;;;;;;14.00;12.33;;;;;8.04;100.00;101608.06;5035533;28;45280;-73
2022/12/19 08:42:22;;;;;;;;;13.33;13.33;;;;;8.11;100.00;101614.75;5046042;28;45166;-75
2022/12/19 08:44:48;;;;;;;;;14.67;13.33;;;;;8.16;100.00;101607.19;5049740;28;45262;-73
2022/12/19 08:47:14;;;;;;;;;12.67;10.00;;;;;8.17;100.00;101606.22;5044704;28;45332;-75
2022/12/19 08:49:40;;;;;;;;;17.67;15.00;;;;;8.20;100.00;101622.22;5036215;28;46836;-73
2022/12/19 08:52:05;;;;;;;;;17.00;14.00;;;;;8.24;100.00;101612.91;5044767;28;45368;-72
2022/12/19 08:54:31;;;;;;;;;19.67;15.33;;;;;8.27;100.00;101617.22;5046383;28;45354;-74
2022/12/19 08:56:57;;;;;;;;;11.67;11.67;;;;;8.33;100.00;101616.81;5046678;28;45324;-73
2022/12/19 08:59:22;;;;;;;;;20.33;19.00;;;;;8.37;100.00;101611.06;5039645;28;45308;-74
2022/12/19 09:01:48;;;;;;;;;14.33;12.33;;;;;8.40;100.00;101613.50;5041031;28;45440;-74
2022/12/19 09:04:13;;;;;;;;;19.67;16.00;;;;;8.48;100.00;101605.69;5041638;28;45567;-76
2022/12/19 09:06:39;;;;;;;;;17.33;15.33;;;;;8.56;100.00;101613.25;5049031;28;45474;-75
2022/12/19 09:09:04;;;;;;;;;15.33;14.00;;;;;8.53;100.00;101598.13;5040173;28;46724;-76
2022/12/19 09:11:30;;;;;;;;;13.00;12.67;;;;;8.62;100.00;101601.13;5039509;28;45303;-76
2022/12/19 09:13:56;;;;;;;;;13.67;11.67;;;;;8.68;100.00;101606.06;5040494;28;45160;-76
2022/12/19 09:16:24;;;;;;;;;20.33;17.33;;;;;8.67;100.00;101607.91;5041210;28;45484;-73
2022/12/19 09:18:52;;;;;;;;;15.33;13.67;;;;;8.74;100.00;101608.31;5038438;28;46696;-75
2022/12/19 09:21:20;;;;;;;;;18.67;13.67;;;;;8.75;100.00;101608.19;5044974;28;45433;-75
2022/12/19 09:23:55;;;;;;;;;19.00;15.67;;;;;8.77;100.00;101613.47;5035575;28;45434;-76
2022/12/19 09:26:22;;;;;;;;;13.00;13.00;;;;;8.80;100.00;101606.00;5044017;28;45274;-76
2022/12/19 09:28:50;;;;;;;;;16.33;16.00;;;;;8.83;100.00;101610.34;5037084;28;45684;-76
2022/12/19 09:31:24;;;;;;;;;16.00;14.67;;;;;8.83;100.00;101603.06;5037378;28;44859;-76
2022/12/19 09:33:50;;;;;;;;;16.67;14.00;;;;;8.87;100.00;101626.22;5042009;28;45420;-75
2022/12/19 09:36:18;;;;;;;;;21.67;15.00;;;;;8.89;100.00;101616.16;5042004;28;45620;-76
2022/12/19 09:38:44;;;;;;;;;22.00;18.67;;;;;8.90;100.00;101622.44;5037726;28;45485;-76
2022/12/19 09:41:25;;;;;;;;;15.33;14.33;;;;;8.90;100.00;101622.44;5038002;28;45287;-75
2022/12/19 09:44:14;;;;;;;;;18.67;15.67;;;;;8.93;100.00;101633.88;5041767;28;47268;-75
2022/12/19 09:46:56;;;;;;;;;11.00;11.00;;;;;8.98;100.00;101630.84;5039080;28;45481;-76
2022/12/19 09:49:24;;;;;;;;;17.00;16.00;;;;;9.02;100.00;101637.75;5037384;28;47562;-77
2022/12/19 09:51:57;;;;;;;;;15.00;14.00;;;;;8.95;100.00;101644.63;5044175;28;45337;-77
2022/12/19 09:54:26;;;;;;;;;19.00;17.33;;;;;9.03;100.00;101633.19;5035768;28;45653;-76
2022/12/19 09:57:01;;;;;;;;;19.67;15.00;;;;;9.06;100.00;101639.22;5039424;28;45422;-76
2022/12/19 09:59:31;;;;;;;;;15.67;13.67;;;;;9.04;100.00;101635.81;5035000;28;46156;-76
2022/12/19 10:02:22;;;;;;;;;14.33;14.00;;;;;9.03;100.00;101628.66;5039876;28;45323;-76
2022/12/19 10:05:00;;;;;;;;;15.33;14.67;;;;;9.05;100.00;101625.81;5034121;28;45320;-75
2022/12/19 10:07:25;;;;;;;;;16.00;14.33;;;;;9.05;100.00;101620.41;5041999;28;45406;-75
2022/12/19 10:09:53;;;;;;;;;11.00;10.33;;;;;9.09;100.00;101633.59;5033244;28;45787;-76
2022/12/19 10:12:37;;;;;;;;;13.00;13.00;;;;;9.00;100.00;101612.59;5050446;28;45508;-77
2022/12/19 10:15:28;;;;;;;;;15.67;14.00;;;;;9.03;100.00;101609.66;5036081;28;45528;-76
2022/12/19 10:18:14;;;;;;;;;15.67;13.00;;;;;9.11;100.00;101615.38;5034172;28;45277;-75
2022/12/19 10:20:49;;;;;;;;;15.00;13.33;;;;;9.15;100.00;101611.44;5040119;28;46742;-77
2022/12/19 10:23:34;;;;;;;;;16.00;13.67;;;;;9.13;100.00;101601.72;5039827;28;45387;-77
2022/12/19 10:26:08;;;;;;;;;18.00;15.67;;;;;9.12;100.00;101598.13;5039152;28;45358;-77
2022/12/19 10:28:33;;;;;;;;;20.33;15.00;;;;;9.25;100.00;101601.59;5038366;28;45355;-76
2022/12/19 10:31:20;;;;;;;;;18.67;16.33;;;;;9.31;100.00;101614.69;5042337;28;45376;-75
2022/12/19 10:33:52;;;;;;;;;14.00;11.33;;;;;9.33;100.00;101601.88;5034727;28;45628;-76
2022/12/19 10:36:17;;;;;;;;;16.00;14.67;;;;;9.29;100.00;101577.81;5038331;28;45510;-76
2022/12/19 10:38:55;;;;;;;;;8.67;8.67;;;;;9.38;100.00;101587.94;5037339;28;45354;-77
2022/12/19 10:41:27;;;;;;;;;11.67;10.33;;;;;9.43;100.00;101593.00;5039841;28;47038;-75
2022/12/19 10:44:08;;;;;;;;;15.00;14.00;;;;;9.46;100.00;101596.34;5036625;28;46135;-76
2022/12/19 10:46:48;;;;;;;;;14.00;11.00;;;;;9.51;100.00;101593.25;5041561;28;45393;-77
2022/12/19 10:49:25;;;;;;;;;18.33;15.00;;;;;9.52;100.00;101593.16;5030853;28;45863;-77
2022/12/19 10:51:59;;;;;;;;;21.33;16.67;;;;;9.51;100.00;101604.13;5037117;28;46382;-75
2022/12/19 10:54:36;;;;;;;;;18.67;17.33;;;;;9.59;100.00;101604.38;5028213;28;45416;-77
2022/12/19 10:57:20;;;;;;;;;21.67;17.67;;;;;9.62;100.00;101604.16;5041384;28;45337;-75
2022/12/19 11:00:15;;;;;;;;;17.00;15.67;;;;;9.60;100.00;101598.84;5032510;28;45472;-76
2022/12/19 11:02:46;;;;;;;;;16.00;14.67;;;;;9.52;100.00;101586.84;5038101;28;45489;-75
2022/12/19 11:05:38;;;;;;;;;19.00;15.67;;;;;9.62;100.00;101582.44;5037321;28;45579;-75
2022/12/19 11:08:06;;;;;;;;;14.33;13.67;;;;;9.63;100.00;101581.47;5033611;28;45389;-75
2022/12/19 11:10:34;;;;;;;;;14.67;14.67;;;;;9.68;100.00;101571.97;5033911;28;45214;-75
2022/12/19 11:13:00;;;;;;;;;17.00;17.00;;;;;9.64;100.00;101575.06;5038778;28;45524;-77
2022/12/19 11:15:25;;;;;;;;;17.00;15.00;;;;;9.62;100.00;101572.47;5032285;28;45311;-76
2022/12/19 11:17:50;;;;;;;;;12.00;10.33;;;;;9.61;100.00;101573.44;5038235;28;45455;-76
2022/12/19 11:20:22;;;;;;;;;18.67;14.67;;;;;9.65;100.00;101583.03;5039462;28;45529;-76
2022/12/19 11:22:55;;;;;;;;;19.00;16.00;;;;;9.68;100.00;101576.53;5039661;28;46733;-74
2022/12/19 11:25:29;;;;;;;;;18.67;12.33;;;;;9.71;100.00;101579.00;5037402;28;45916;-74